METAR Data
IDs: Format: Raw Decoded Include TAF

Data at: 1542 UTC 13 Jul 2020

METAR for:KCKZ (Perkasie/Pennridge A, PA, US)
Text:KCKZ 131535Z AUTO 32006KT 10SM CLR 25/19 A2986 RMK AO2
Temperature: 25.0°C ( 77°F)
Dewpoint: 19.0°C ( 66°F) [RH = 69%]
Pressure (altimeter):29.86 inches Hg (1011.3 mb)
Winds:from the NW (320 degrees) at 7 MPH (6 knots; 3.1 m/s)
Visibility:10 or more sm (16+ km)
Ceiling:at least 12,000 feet AGL
Clouds:sky clear below 12,000 feet AGL
QC Flag:automated observation with no human augmentation